createdAt,value
2022-08-26T00:01:37.070Z,18.85
2022-08-26T00:04:04.489Z,19.05
2022-08-26T00:06:32.440Z,18.65
2022-08-26T00:09:00.648Z,19.17
2022-08-26T00:11:28.194Z,19.58
2022-08-26T00:13:56.971Z,18.90
2022-08-26T00:16:24.303Z,17.52
2022-08-26T00:18:51.194Z,17.60
2022-08-26T00:21:17.884Z,17.48
2022-08-26T00:23:45.724Z,16.80
2022-08-26T00:26:14.240Z,17.27
2022-08-26T00:28:41.464Z,16.23
2022-08-26T00:31:11.032Z,16.30
2022-08-26T00:33:38.124Z,15.60
2022-08-26T00:36:05.593Z,16.45
2022-08-26T00:38:32.464Z,14.88
2022-08-26T00:40:59.137Z,15.18
2022-08-26T00:43:46.224Z,14.93
2022-08-26T00:46:18.774Z,14.05
2022-08-26T00:48:48.033Z,15.55
2022-08-26T00:51:19.813Z,14.70
2022-08-26T00:53:50.522Z,14.43
2022-08-26T00:56:20.316Z,13.60
2022-08-26T00:58:49.396Z,14.10
2022-08-26T01:01:17.291Z,13.77
2022-08-26T01:03:45.521Z,13.60
2022-08-26T01:06:13.592Z,13.15
2022-08-26T01:08:40.993Z,12.10
2022-08-26T01:11:08.423Z,12.95
2022-08-26T01:13:37.423Z,11.50
2022-08-26T01:16:10.446Z,11.43
2022-08-26T01:18:39.379Z,10.30
2022-08-26T01:21:15.982Z,11.13
2022-08-26T01:23:49.747Z,10.10
2022-08-26T01:26:20.176Z,10.20
2022-08-26T01:28:50.621Z,9.23
2022-08-26T01:33:55.009Z,8.77
2022-08-26T01:36:23.202Z,8.32
2022-08-26T01:38:52.161Z,8.43
2022-08-26T01:41:20.669Z,7.88
2022-08-26T01:43:56.786Z,7.10
2022-08-26T01:46:26.637Z,7.32
2022-08-26T01:48:55.219Z,6.63
2022-08-26T01:51:25.029Z,6.70
2022-08-26T01:53:53.805Z,6.03
2022-08-26T01:56:22.909Z,6.32
2022-08-26T01:58:52.372Z,5.38
2022-08-26T02:01:19.897Z,4.70
2022-08-26T02:03:57.812Z,5.68
2022-08-26T02:06:26.322Z,4.53
2022-08-26T02:09:00.020Z,5.07
2022-08-26T02:11:28.100Z,4.32
2022-08-26T02:13:58.521Z,4.50
2022-08-26T02:16:30.990Z,4.07
2022-08-26T02:18:59.307Z,3.97
2022-08-26T02:21:26.903Z,3.80
2022-08-26T02:23:56.197Z,3.25
2022-08-26T02:26:25.416Z,3.63
2022-08-26T02:28:58.633Z,4.18
2022-08-26T02:31:25.984Z,3.28
2022-08-26T02:33:52.824Z,2.90
2022-08-26T02:36:21.922Z,3.63
2022-08-26T02:38:52.840Z,3.63
2022-08-26T02:41:21.648Z,3.25
2022-08-26T02:43:50.073Z,3.03
2022-08-26T02:46:21.537Z,2.90
2022-08-26T02:48:55.043Z,3.35
2022-08-26T02:51:22.363Z,2.67
2022-08-26T02:53:50.997Z,3.00
2022-08-26T02:56:17.813Z,3.00
2022-08-26T02:58:46.763Z,2.88
2022-08-26T03:01:21.041Z,3.03
2022-08-26T03:03:48.852Z,3.20
2022-08-26T03:06:17.032Z,3.30
2022-08-26T03:08:43.902Z,3.13
2022-08-26T03:11:11.235Z,2.70
2022-08-26T03:13:38.664Z,3.17
2022-08-26T03:16:08.041Z,3.03
2022-08-26T03:18:35.493Z,3.08
2022-08-26T03:21:05.740Z,2.97
2022-08-26T03:23:33.425Z,3.08
2022-08-26T03:26:01.398Z,3.28
2022-08-26T03:28:29.087Z,2.70
2022-08-26T03:30:56.450Z,3.13
2022-08-26T03:33:26.146Z,3.00
2022-08-26T03:35:55.078Z,3.33
2022-08-26T03:38:24.282Z,3.13
2022-08-26T03:40:52.091Z,3.17
2022-08-26T03:43:19.361Z,2.80
2022-08-26T03:45:46.676Z,3.22
2022-08-26T03:48:14.368Z,2.75
2022-08-26T03:50:42.556Z,2.78
2022-08-26T03:53:12.895Z,2.80
2022-08-26T03:55:41.936Z,3.50
2022-08-26T03:58:10.506Z,2.92
2022-08-26T04:00:38.410Z,2.80
2022-08-26T04:03:05.805Z,2.72
2022-08-26T04:08:07.118Z,2.83
2022-08-26T04:10:34.063Z,2.67
2022-08-26T04:13:00.695Z,2.80
2022-08-26T04:15:27.623Z,2.60
2022-08-26T04:17:54.484Z,2.08
2022-08-26T04:20:22.954Z,2.38
2022-08-26T04:22:50.722Z,2.40
2022-08-26T04:25:20.494Z,2.78
2022-08-26T04:27:48.294Z,2.58
2022-08-26T04:30:16.690Z,2.00
2022-08-26T04:32:44.087Z,2.22
2022-08-26T04:35:10.918Z,1.98
2022-08-26T04:37:37.695Z,2.00
2022-08-26T04:40:08.817Z,2.45
2022-08-26T04:42:37.125Z,1.80
2022-08-26T04:45:05.824Z,2.28
2022-08-26T04:47:38.334Z,1.85
2022-08-26T04:50:07.638Z,2.10
2022-08-26T04:52:35.113Z,1.95
2022-08-26T04:55:02.414Z,2.08
2022-08-26T04:57:30.536Z,1.73
2022-08-26T05:00:00.717Z,1.95
2022-08-26T05:02:30.240Z,1.73
2022-08-26T05:04:59.340Z,1.92
2022-08-26T05:07:26.048Z,1.55
2022-08-26T05:09:52.857Z,1.80
2022-08-26T05:12:20.431Z,1.75
2022-08-26T05:14:47.710Z,1.88
2022-08-26T05:17:16.101Z,1.38
2022-08-26T05:19:43.355Z,1.45
2022-08-26T05:22:10.529Z,1.30
2022-08-26T05:24:40.096Z,1.67
2022-08-26T05:27:11.445Z,1.40
2022-08-26T05:29:39.114Z,1.52
2022-08-26T05:32:09.538Z,1.17
2022-08-26T05:34:40.901Z,1.65
2022-08-26T05:37:09.770Z,1.63
2022-08-26T05:39:36.475Z,1.48
2022-08-26T05:42:03.764Z,1.65
2022-08-26T05:44:30.490Z,1.75
2022-08-26T05:47:17.213Z,1.60
2022-08-26T05:49:51.652Z,1.40
2022-08-26T05:52:19.091Z,1.40
2022-08-26T05:54:45.746Z,2.00
2022-08-26T05:57:14.730Z,1.50
2022-08-26T05:59:41.996Z,1.40
2022-08-26T06:02:09.743Z,1.73
2022-08-26T06:04:36.383Z,1.90
2022-08-26T06:07:05.541Z,1.98
2022-08-26T06:09:36.746Z,2.08
2022-08-26T06:12:05.645Z,2.15
2022-08-26T06:14:32.345Z,1.70
2022-08-26T06:16:59.250Z,1.73
2022-08-26T06:19:26.113Z,1.85
2022-08-26T06:21:59.953Z,1.33
2022-08-26T06:24:28.524Z,1.83
2022-08-26T06:26:56.925Z,1.50
2022-08-26T06:29:26.070Z,1.38
2022-08-26T06:31:53.961Z,1.42
2022-08-26T06:34:21.430Z,1.50
2022-08-26T06:36:48.198Z,1.40
2022-08-26T06:39:17.478Z,1.30
2022-08-26T06:41:46.213Z,1.50
2022-08-26T06:44:19.580Z,2.58
2022-08-26T06:46:50.516Z,1.30
2022-08-26T06:49:17.759Z,1.40
2022-08-26T06:51:44.692Z,1.63
2022-08-26T06:54:11.755Z,1.30
2022-08-26T06:56:41.540Z,1.10
2022-08-26T06:59:11.593Z,1.77
2022-08-26T07:01:43.088Z,1.10
2022-08-26T07:04:12.632Z,1.40
2022-08-26T07:06:41.650Z,1.25
2022-08-26T07:09:10.506Z,1.30
2022-08-26T07:11:39.428Z,1.50
2022-08-26T07:14:09.106Z,1.35
2022-08-26T07:16:38.897Z,1.17
2022-08-26T07:19:10.988Z,1.20
2022-08-26T07:21:38.645Z,1.17
2022-08-26T07:24:06.435Z,0.90
2022-08-26T07:26:33.410Z,1.23
2022-08-26T07:29:01.325Z,1.10
2022-08-26T07:31:33.604Z,1.05
2022-08-26T07:34:05.735Z,1.23
2022-08-26T07:36:32.339Z,1.23
2022-08-26T07:38:59.557Z,1.38
2022-08-26T07:41:26.477Z,1.10
2022-08-26T07:43:55.228Z,1.10
2022-08-26T07:46:30.043Z,1.00
2022-08-26T07:48:58.016Z,1.10
2022-08-26T07:51:27.083Z,1.40
2022-08-26T07:53:55.084Z,1.15
2022-08-26T07:56:23.062Z,1.30
2022-08-26T07:58:51.731Z,1.40
2022-08-26T08:01:18.923Z,1.50
2022-08-26T08:03:45.851Z,1.20
2022-08-26T08:06:12.467Z,1.52
2022-08-26T08:08:40.655Z,1.20
2022-08-26T08:11:07.669Z,1.25
2022-08-26T08:13:37.448Z,1.13
2022-08-26T08:16:04.799Z,1.15
2022-08-26T08:18:31.744Z,0.95
2022-08-26T08:21:10.789Z,1.20
2022-08-26T08:23:46.384Z,1.90
2022-08-26T08:26:14.448Z,1.30
2022-08-26T08:28:43.760Z,1.25
2022-08-26T08:31:33.025Z,1.33
2022-08-26T08:34:05.937Z,0.98
2022-08-26T08:36:36.247Z,1.67
2022-08-26T08:39:04.412Z,0.90
2022-08-26T08:41:45.466Z,1.00
2022-08-26T08:44:16.915Z,1.13
2022-08-26T08:46:46.473Z,1.33
2022-08-26T08:49:14.769Z,1.30
2022-08-26T08:51:48.557Z,1.38
2022-08-26T08:54:16.833Z,1.35
2022-08-26T08:56:49.581Z,1.80
2022-08-26T08:59:18.857Z,1.52
2022-08-26T09:02:03.175Z,1.00
2022-08-26T09:04:51.324Z,1.40
2022-08-26T09:07:25.286Z,1.63
2022-08-26T09:09:58.074Z,0.95
2022-08-26T09:12:29.450Z,1.50
2022-08-26T09:15:01.887Z,1.23
2022-08-26T09:17:38.860Z,0.93
2022-08-26T09:20:14.129Z,1.00
2022-08-26T09:22:41.066Z,1.15
2022-08-26T09:25:14.765Z,1.15
2022-08-26T09:27:44.639Z,1.27
2022-08-26T09:30:14.527Z,1.20
2022-08-26T09:32:41.426Z,1.10
2022-08-26T09:35:10.791Z,1.23
2022-08-26T09:37:41.953Z,1.27
2022-08-26T09:40:27.769Z,1.73
2022-08-26T09:43:11.808Z,1.55
2022-08-26T09:45:50.636Z,1.42
2022-08-26T09:48:26.159Z,1.20
2022-08-26T09:50:57.113Z,1.13
2022-08-26T09:53:30.429Z,1.85
2022-08-26T09:56:16.970Z,1.20
2022-08-26T09:58:46.738Z,1.60
2022-08-26T10:01:33.474Z,1.60
2022-08-26T10:04:06.625Z,1.17
2022-08-26T10:06:41.030Z,0.95
2022-08-26T10:09:12.107Z,1.20
2022-08-26T10:11:44.746Z,1.42
2022-08-26T10:14:18.995Z,1.30
2022-08-26T10:16:50.457Z,1.00
2022-08-26T10:19:21.002Z,1.00
2022-08-26T10:21:54.119Z,1.00
2022-08-26T10:24:25.759Z,1.30
2022-08-26T10:27:02.298Z,1.23
2022-08-26T10:29:33.132Z,1.13
2022-08-26T10:32:04.299Z,1.17
2022-08-26T10:34:32.367Z,1.20
2022-08-26T10:37:14.111Z,0.77
2022-08-26T10:39:55.245Z,0.93
2022-08-26T10:42:30.349Z,1.10
2022-08-26T10:45:02.702Z,0.93
2022-08-26T10:47:37.383Z,1.02
2022-08-26T10:50:05.984Z,1.30
2022-08-26T10:52:52.106Z,1.00
2022-08-26T10:55:25.936Z,0.98
2022-08-26T10:57:59.270Z,1.13
2022-08-26T11:00:36.460Z,0.77
2022-08-26T11:03:21.742Z,1.08
2022-08-26T11:06:15.583Z,0.90
2022-08-26T11:08:45.750Z,0.77
2022-08-26T11:11:12.506Z,1.20
2022-08-26T11:14:01.324Z,1.13
2022-08-26T11:16:42.874Z,1.23
2022-08-26T11:19:12.543Z,1.30
2022-08-26T11:21:49.389Z,2.08
2022-08-26T11:24:59.261Z,1.27
2022-08-26T11:28:02.786Z,1.25
2022-08-26T11:30:57.035Z,1.50
2022-08-26T11:33:55.783Z,1.25
2022-08-26T11:36:41.207Z,1.10
2022-08-26T11:39:18.867Z,1.00
2022-08-26T11:41:49.639Z,1.30
2022-08-26T11:44:22.286Z,1.40
2022-08-26T11:46:57.064Z,1.67
2022-08-26T11:49:24.355Z,1.27
2022-08-26T11:51:52.626Z,1.73
2022-08-26T11:54:35.260Z,1.10
2022-08-26T11:57:09.526Z,1.20
2022-08-26T11:59:41.092Z,2.03
2022-08-26T12:02:15.589Z,1.10
2022-08-26T12:04:47.382Z,1.00
2022-08-26T12:07:14.687Z,0.95
2022-08-26T12:09:52.229Z,1.42
2022-08-26T12:12:25.535Z,1.30
2022-08-26T12:15:09.019Z,1.40
2022-08-26T12:17:40.753Z,0.98
2022-08-26T12:20:18.584Z,1.20
2022-08-26T12:22:47.954Z,1.40
2022-08-26T12:25:23.664Z,1.40
2022-08-26T12:27:53.747Z,1.30
2022-08-26T12:30:22.662Z,1.55
2022-08-26T12:32:58.153Z,1.20
2022-08-26T12:35:26.095Z,1.13
2022-08-26T12:37:54.259Z,0.95
2022-08-26T12:40:36.723Z,1.08
2022-08-26T12:43:05.340Z,0.98
2022-08-26T12:45:34.960Z,1.23
2022-08-26T12:48:08.073Z,1.15
2022-08-26T12:50:37.500Z,1.25
2022-08-26T12:53:22.206Z,1.20
2022-08-26T12:55:51.444Z,1.50
2022-08-26T12:58:27.978Z,1.50
2022-08-26T13:00:56.957Z,1.00
2022-08-26T13:03:39.016Z,1.92
2022-08-26T13:06:15.537Z,1.38
2022-08-26T13:08:43.906Z,1.30
2022-08-26T13:11:13.372Z,1.13
2022-08-26T13:13:40.090Z,1.67
2022-08-26T13:16:07.294Z,1.38
2022-08-26T13:18:35.416Z,1.60
2022-08-26T13:21:09.057Z,1.30
2022-08-26T13:23:39.452Z,1.92
2022-08-26T13:26:08.682Z,1.55
2022-08-26T13:28:35.346Z,1.75
2022-08-26T13:31:02.856Z,1.73
2022-08-26T13:33:29.564Z,3.00
2022-08-26T13:35:57.603Z,3.03
2022-08-26T13:38:33.829Z,1.55
2022-08-26T13:41:01.105Z,1.60
2022-08-26T13:43:28.189Z,1.75
2022-08-26T13:45:55.101Z,1.70
2022-08-26T13:48:23.521Z,1.55
2022-08-26T13:50:50.696Z,1.55
2022-08-26T13:53:19.233Z,2.42
2022-08-26T13:55:46.041Z,2.00
2022-08-26T13:58:12.728Z,1.90
2022-08-26T14:00:40.016Z,2.22
2022-08-26T14:03:11.288Z,1.60
2022-08-26T14:05:39.510Z,1.45
2022-08-26T14:08:06.899Z,1.55
2022-08-26T14:10:35.333Z,1.40
2022-08-26T14:13:02.723Z,1.17
2022-08-26T14:15:33.604Z,1.67
2022-08-26T14:18:02.505Z,1.45
2022-08-26T14:20:31.601Z,1.40
2022-08-26T14:23:13.120Z,1.70
2022-08-26T14:25:46.886Z,1.88
2022-08-26T14:28:13.546Z,2.05
2022-08-26T14:30:41.980Z,2.47
2022-08-26T14:33:11.954Z,2.00
2022-08-26T14:35:39.502Z,1.92
2022-08-26T14:38:06.187Z,2.15
2022-08-26T14:40:33.847Z,2.00
2022-08-26T14:43:06.156Z,1.70
2022-08-26T14:48:12.395Z,1.88
2022-08-26T14:50:39.001Z,2.10
2022-08-26T14:53:05.702Z,1.92
2022-08-26T14:55:34.356Z,2.05
2022-08-26T14:58:02.417Z,2.00
2022-08-26T15:00:30.757Z,2.25
2022-08-26T15:02:57.723Z,2.15
2022-08-26T15:05:24.613Z,2.28
2022-08-26T15:07:51.331Z,1.85
2022-08-26T15:10:18.054Z,2.25
2022-08-26T15:12:45.473Z,2.10
2022-08-26T15:15:14.850Z,1.80
2022-08-26T15:17:43.045Z,2.40
2022-08-26T15:20:12.129Z,2.55
2022-08-26T15:22:39.645Z,2.60
2022-08-26T15:25:08.151Z,2.22
2022-08-26T15:27:34.886Z,2.45
2022-08-26T15:30:01.829Z,2.10
2022-08-26T15:32:28.647Z,1.90
2022-08-26T15:34:56.773Z,1.90
2022-08-26T15:37:23.487Z,1.85
2022-08-26T15:39:50.325Z,1.90
2022-08-26T15:42:16.967Z,1.70
2022-08-26T15:44:44.031Z,1.27
2022-08-26T15:47:10.680Z,1.50
2022-08-26T15:49:37.343Z,1.35
2022-08-26T15:52:05.623Z,1.42
2022-08-26T15:54:32.591Z,1.15
2022-08-26T15:57:01.190Z,1.20
2022-08-26T15:59:29.316Z,1.10
2022-08-26T16:01:57.203Z,1.02
2022-08-26T16:04:23.906Z,1.00
2022-08-26T16:06:50.927Z,1.02
2022-08-26T16:09:19.637Z,1.20
2022-08-26T16:11:46.329Z,1.20
2022-08-26T16:14:13.020Z,0.80
2022-08-26T16:16:40.411Z,0.77
2022-08-26T16:19:07.824Z,0.90
2022-08-26T16:21:35.235Z,0.63
2022-08-26T16:24:02.590Z,0.70
2022-08-26T16:26:33.224Z,0.80
2022-08-26T16:29:01.497Z,0.80
2022-08-26T16:31:28.290Z,1.05
2022-08-26T16:33:54.978Z,0.68
2022-08-26T16:36:21.586Z,0.77
2022-08-26T16:38:50.093Z,0.70
2022-08-26T16:41:17.139Z,0.90
2022-08-26T16:43:45.503Z,1.15
2022-08-26T16:46:12.508Z,0.70
2022-08-26T16:48:39.658Z,0.82
2022-08-26T16:51:10.739Z,0.82
2022-08-26T16:53:37.909Z,0.95
2022-08-26T16:56:04.775Z,0.88
2022-08-26T16:58:31.514Z,1.00
2022-08-26T17:00:59.515Z,1.00
2022-08-26T17:03:26.228Z,0.95
2022-08-26T17:05:53.221Z,1.30
2022-08-26T17:08:28.623Z,0.80
2022-08-26T17:10:56.076Z,0.90
2022-08-26T17:13:34.870Z,0.65
2022-08-26T17:16:05.730Z,0.65
2022-08-26T17:18:32.962Z,0.70
2022-08-26T17:21:01.401Z,0.70
2022-08-26T17:23:28.133Z,0.70
2022-08-26T17:25:54.794Z,0.90
2022-08-26T17:28:21.435Z,0.70
2022-08-26T17:30:48.119Z,0.68
2022-08-26T17:33:17.159Z,0.70
2022-08-26T17:35:48.801Z,0.55
2022-08-26T17:38:15.464Z,1.25
2022-08-26T17:40:42.228Z,0.68
2022-08-26T17:43:12.239Z,0.77
2022-08-26T17:45:40.263Z,0.80
2022-08-26T17:48:07.307Z,0.90
2022-08-26T17:50:35.415Z,0.85
2022-08-26T17:53:02.035Z,1.00
2022-08-26T17:55:28.734Z,0.60
2022-08-26T17:57:55.595Z,0.60
2022-08-26T18:00:25.661Z,0.75
2022-08-26T18:02:52.389Z,1.08
2022-08-26T18:05:19.204Z,0.90
2022-08-26T18:07:47.585Z,0.73
2022-08-26T18:10:16.860Z,0.90
2022-08-26T18:12:43.521Z,0.88
2022-08-26T18:15:12.194Z,1.10
2022-08-26T18:17:39.746Z,0.70
2022-08-26T18:20:08.296Z,0.73
2022-08-26T18:22:34.925Z,0.68
2022-08-26T18:25:04.020Z,0.77
2022-08-26T18:27:31.191Z,0.70
2022-08-26T18:29:58.111Z,0.68
2022-08-26T18:32:24.774Z,0.80
2022-08-26T18:34:51.573Z,0.95
2022-08-26T18:37:18.170Z,0.93
2022-08-26T18:39:44.939Z,0.75
2022-08-26T18:42:12.876Z,0.90
2022-08-26T18:44:39.777Z,1.05
2022-08-26T18:47:06.552Z,0.70
2022-08-26T18:49:33.206Z,1.05
2022-08-26T18:51:59.850Z,0.85
2022-08-26T18:54:27.036Z,1.17
2022-08-26T18:56:53.604Z,0.60
2022-08-26T18:59:28.460Z,0.73
2022-08-26T19:01:57.667Z,1.05
2022-08-26T19:04:24.445Z,0.70
2022-08-26T19:06:51.913Z,0.77
2022-08-26T19:09:18.723Z,0.80
2022-08-26T19:11:45.609Z,0.52
2022-08-26T19:14:15.271Z,1.23
2022-08-26T19:16:45.316Z,0.98
2022-08-26T19:19:12.346Z,0.90
2022-08-26T19:21:39.228Z,0.90
2022-08-26T19:24:08.043Z,1.25
2022-08-26T19:26:35.033Z,0.75
2022-08-26T19:29:01.805Z,1.30
2022-08-26T19:31:28.504Z,0.88
2022-08-26T19:33:56.830Z,1.00
2022-08-26T19:36:25.134Z,0.90
2022-08-26T19:38:52.868Z,0.82
2022-08-26T19:41:21.361Z,0.68
2022-08-26T19:43:48.628Z,1.10
2022-08-26T19:46:18.145Z,0.80
2022-08-26T19:48:45.229Z,1.10
2022-08-26T19:51:13.761Z,1.05
2022-08-26T19:53:41.139Z,0.85
2022-08-26T19:56:08.044Z,0.65
2022-08-26T19:58:34.626Z,1.45
2022-08-26T20:01:01.457Z,1.55
2022-08-26T20:03:28.214Z,0.80
2022-08-26T20:05:54.829Z,1.10
2022-08-26T20:08:22.885Z,0.93
2022-08-26T20:10:50.281Z,1.30
2022-08-26T20:13:17.393Z,1.38
2022-08-26T20:15:44.342Z,1.42
2022-08-26T20:18:11.072Z,1.02
2022-08-26T20:20:37.908Z,0.70
2022-08-26T20:23:04.519Z,1.10
2022-08-26T20:25:34.015Z,1.10
2022-08-26T20:28:01.342Z,1.20
2022-08-26T20:30:28.330Z,1.08
2022-08-26T20:32:55.213Z,1.00
2022-08-26T20:35:22.081Z,0.90
2022-08-26T20:37:49.419Z,1.00
2022-08-26T20:40:16.232Z,1.20
2022-08-26T20:42:44.255Z,0.80
2022-08-26T20:45:11.163Z,1.38
2022-08-26T20:47:37.845Z,0.90
2022-08-26T20:50:05.468Z,0.90
2022-08-26T20:52:32.141Z,1.10
2022-08-26T20:54:58.784Z,1.00
2022-08-26T20:57:25.380Z,1.75
2022-08-26T20:59:53.404Z,1.00
2022-08-26T21:02:20.134Z,1.40
2022-08-26T21:04:46.807Z,1.10
2022-08-26T21:07:14.953Z,1.13
2022-08-26T21:09:44.375Z,0.75
2022-08-26T21:12:11.105Z,1.08
2022-08-26T21:14:37.812Z,0.90
2022-08-26T21:17:05.946Z,1.27
2022-08-26T21:19:32.782Z,1.20
2022-08-26T21:21:59.420Z,1.35
2022-08-26T21:24:26.067Z,1.33
2022-08-26T21:26:52.776Z,0.90
2022-08-26T21:29:19.541Z,1.02
2022-08-26T21:31:46.979Z,1.35
2022-08-26T21:34:17.264Z,1.10
2022-08-26T21:36:44.458Z,1.60
2022-08-26T21:39:12.284Z,1.20
2022-08-26T21:41:39.572Z,1.20
2022-08-26T21:44:06.237Z,1.30
2022-08-26T21:46:33.035Z,1.70
2022-08-26T21:49:02.235Z,1.33
2022-08-26T21:51:32.165Z,1.25
2022-08-26T21:54:00.753Z,1.08
2022-08-26T21:56:30.537Z,1.30
2022-08-26T21:58:57.593Z,1.30
2022-08-26T22:01:27.596Z,0.85
2022-08-26T22:03:54.545Z,1.30
2022-08-26T22:06:24.643Z,1.50
2022-08-26T22:08:53.657Z,1.05
2022-08-26T22:11:20.402Z,1.60
2022-08-26T22:13:47.868Z,1.20
2022-08-26T22:16:15.568Z,1.27
2022-08-26T22:18:42.906Z,1.42
2022-08-26T22:21:17.403Z,1.10
2022-08-26T22:23:44.628Z,1.00
2022-08-26T22:26:20.643Z,1.50
2022-08-26T22:28:55.612Z,1.30
2022-08-26T22:31:28.075Z,0.98
2022-08-26T22:34:06.623Z,1.38
2022-08-26T22:36:33.269Z,1.35
2022-08-26T22:39:01.137Z,1.52
2022-08-26T22:41:29.639Z,1.13
2022-08-26T22:44:01.337Z,1.10
2022-08-26T22:46:28.076Z,1.48
2022-08-26T22:48:54.865Z,1.35
2022-08-26T22:51:22.118Z,1.13
2022-08-26T22:53:49.252Z,1.20
2022-08-26T22:56:15.921Z,1.40
2022-08-26T22:58:44.052Z,1.02
2022-08-26T23:01:11.015Z,0.90
2022-08-26T23:03:37.952Z,1.20
2022-08-26T23:06:05.513Z,1.10
2022-08-26T23:08:32.351Z,0.90
2022-08-26T23:10:59.007Z,1.13
2022-08-26T23:13:25.731Z,1.23
2022-08-26T23:16:01.997Z,1.10
2022-08-26T23:18:28.734Z,1.13
2022-08-26T23:20:55.484Z,1.17
2022-08-26T23:23:22.289Z,1.17
2022-08-26T23:25:49.090Z,1.10
2022-08-26T23:28:16.440Z,1.00
2022-08-26T23:30:43.052Z,1.13
2022-08-26T23:33:11.051Z,0.75
2022-08-26T23:35:38.095Z,1.08
2022-08-26T23:38:07.133Z,1.00
2022-08-26T23:40:37.551Z,0.90
2022-08-26T23:43:07.674Z,0.95
2022-08-26T23:45:35.361Z,1.50
2022-08-26T23:48:02.312Z,1.05
2022-08-26T23:50:31.420Z,1.08
2022-08-26T23:52:58.126Z,1.10
2022-08-26T23:55:24.889Z,0.90
2022-08-26T23:57:51.533Z,1.08
